createdAt,value
2023-01-08T00:02:04.595Z,6.79
2023-01-08T00:04:31.149Z,6.46
2023-01-08T00:06:57.798Z,6.72
2023-01-08T00:09:24.499Z,6.49
2023-01-08T00:11:51.254Z,6.59
2023-01-08T00:14:17.897Z,6.46
2023-01-08T00:16:44.520Z,6.18
2023-01-08T00:19:12.839Z,6.18
2023-01-08T00:21:39.492Z,6.51
2023-01-08T00:24:06.494Z,6.49
2023-01-08T00:26:33.252Z,6.68
2023-01-08T00:28:59.930Z,6.65
2023-01-08T00:31:26.558Z,6.77
2023-01-08T00:33:53.153Z,6.60
2023-01-08T00:36:20.449Z,6.63
2023-01-08T00:38:47.192Z,6.30
2023-01-08T00:41:15.197Z,6.55
2023-01-08T00:43:41.899Z,6.67
2023-01-08T00:46:09.297Z,6.67
2023-01-08T00:48:39.244Z,6.52
2023-01-08T00:51:08.213Z,6.43
2023-01-08T00:53:40.250Z,6.40
2023-01-08T00:56:10.980Z,6.38
2023-01-08T00:58:37.642Z,5.93
2023-01-08T01:01:11.038Z,5.95
2023-01-08T01:03:37.911Z,6.31
2023-01-08T01:06:06.118Z,6.40
2023-01-08T01:08:33.823Z,6.37
2023-01-08T01:11:00.427Z,6.28
2023-01-08T01:13:27.071Z,6.41
2023-01-08T01:15:58.189Z,6.51
2023-01-08T01:18:24.894Z,6.50
2023-01-08T01:20:51.763Z,6.43
2023-01-08T01:23:18.407Z,6.63
2023-01-08T01:25:45.885Z,6.52
2023-01-08T01:28:12.576Z,6.49
2023-01-08T01:30:39.207Z,6.53
2023-01-08T01:33:05.893Z,6.52
2023-01-08T01:35:32.615Z,6.59
2023-01-08T01:38:02.799Z,6.49
2023-01-08T01:40:29.378Z,6.34
2023-01-08T01:42:55.997Z,6.21
2023-01-08T01:45:26.356Z,6.34
2023-01-08T01:47:59.544Z,6.27
2023-01-08T01:50:30.610Z,5.83
2023-01-08T01:53:15.087Z,6.04
2023-01-08T01:55:43.394Z,5.59
2023-01-08T01:58:31.066Z,5.75
2023-01-08T02:01:01.218Z,5.94
2023-01-08T02:03:35.290Z,5.95
2023-01-08T02:06:17.936Z,5.97
2023-01-08T02:08:50.414Z,6.06
2023-01-08T02:11:25.478Z,6.02
2023-01-08T02:14:36.529Z,5.70
2023-01-08T02:17:11.754Z,5.79
2023-01-08T02:19:41.086Z,6.03
2023-01-08T02:22:35.293Z,5.15
2023-01-08T02:25:10.698Z,5.63
2023-01-08T02:27:40.866Z,5.69
2023-01-08T02:30:08.444Z,5.70
2023-01-08T02:32:39.166Z,5.94
2023-01-08T02:35:07.204Z,6.12
2023-01-08T02:37:34.256Z,5.95
2023-01-08T02:40:07.010Z,5.81
2023-01-08T02:42:43.135Z,5.38
2023-01-08T02:45:37.327Z,5.25
2023-01-08T02:48:09.575Z,5.37
2023-01-08T02:50:51.633Z,5.77
2023-01-08T02:53:27.460Z,5.74
2023-01-08T02:56:02.121Z,5.76
2023-01-08T02:58:32.113Z,6.03
2023-01-08T03:01:02.340Z,5.98
2023-01-08T03:03:36.023Z,6.04
2023-01-08T03:06:05.962Z,5.94
2023-01-08T03:08:36.486Z,5.85
2023-01-08T03:11:13.680Z,5.87
2023-01-08T03:13:50.814Z,5.91
2023-01-08T03:16:36.616Z,5.64
2023-01-08T03:19:17.073Z,5.70
2023-01-08T03:21:45.504Z,5.69
2023-01-08T03:24:24.131Z,5.76
2023-01-08T03:26:54.949Z,5.70
2023-01-08T03:29:24.575Z,5.50
2023-01-08T03:31:55.088Z,5.49
2023-01-08T03:34:24.654Z,5.52
2023-01-08T03:36:58.641Z,5.70
2023-01-08T03:39:31.515Z,5.44
2023-01-08T03:42:02.947Z,5.08
2023-01-08T03:44:29.550Z,5.35
2023-01-08T03:46:57.931Z,5.41
2023-01-08T03:49:28.601Z,5.55
2023-01-08T03:51:55.437Z,5.59
2023-01-08T03:54:28.970Z,5.58
2023-01-08T03:56:55.561Z,5.39
2023-01-08T03:59:22.157Z,5.43
2023-01-08T04:01:48.936Z,5.52
2023-01-08T04:04:15.894Z,5.54
2023-01-08T04:06:42.948Z,5.55
2023-01-08T04:09:09.936Z,5.58
2023-01-08T04:11:36.609Z,5.32
2023-01-08T04:14:03.904Z,5.38
2023-01-08T04:16:31.728Z,4.95
2023-01-08T04:18:58.337Z,5.26
2023-01-08T04:21:25.118Z,5.44
2023-01-08T04:23:51.712Z,5.20
2023-01-08T04:26:18.298Z,5.30
2023-01-08T04:28:45.536Z,5.15
2023-01-08T04:31:12.192Z,5.18
2023-01-08T04:33:48.053Z,5.24
2023-01-08T04:36:14.947Z,5.38
2023-01-08T04:38:42.004Z,5.27
2023-01-08T04:41:08.669Z,5.05
2023-01-08T04:43:35.294Z,5.30
2023-01-08T04:46:04.538Z,5.45
2023-01-08T04:48:31.873Z,5.59
2023-01-08T04:51:00.167Z,5.64
2023-01-08T04:53:28.162Z,5.81
2023-01-08T04:55:54.948Z,5.62
2023-01-08T04:58:22.153Z,5.80
2023-01-08T05:00:52.596Z,5.53
2023-01-08T05:03:21.125Z,5.61
2023-01-08T05:05:49.880Z,5.56
2023-01-08T05:08:16.644Z,5.75
2023-01-08T05:10:46.064Z,5.51
2023-01-08T05:13:12.651Z,5.46
2023-01-08T05:15:39.257Z,5.50
2023-01-08T05:18:06.272Z,5.30
2023-01-08T05:20:35.886Z,5.39
2023-01-08T05:23:05.740Z,5.41
2023-01-08T05:25:32.273Z,5.29
2023-01-08T05:27:58.897Z,5.28
2023-01-08T05:30:25.520Z,5.29
2023-01-08T05:32:53.222Z,5.39
2023-01-08T05:35:19.909Z,5.58
2023-01-08T05:37:49.022Z,5.47
2023-01-08T05:40:15.811Z,5.42
2023-01-08T05:42:42.736Z,5.34
2023-01-08T05:45:09.667Z,5.45
2023-01-08T05:47:36.338Z,5.29
2023-01-08T05:50:03.189Z,5.47
2023-01-08T05:52:29.792Z,5.29
2023-01-08T05:54:56.561Z,5.40
2023-01-08T05:57:23.147Z,5.47
2023-01-08T05:59:49.784Z,5.47
2023-01-08T06:02:16.419Z,5.32
2023-01-08T06:04:43.767Z,5.40
2023-01-08T06:07:10.383Z,5.33
2023-01-08T06:09:37.084Z,5.29
2023-01-08T06:12:03.892Z,4.91
2023-01-08T06:14:30.649Z,4.66
2023-01-08T06:16:57.291Z,4.87
2023-01-08T06:19:24.206Z,5.01
2023-01-08T06:21:50.872Z,4.94
2023-01-08T06:24:17.502Z,5.10
2023-01-08T06:26:44.103Z,4.95
2023-01-08T06:29:10.777Z,4.96
2023-01-08T06:31:37.536Z,5.11
2023-01-08T06:34:04.176Z,5.14
2023-01-08T06:36:30.841Z,4.96
2023-01-08T06:38:57.411Z,5.08
2023-01-08T06:41:24.124Z,5.07
2023-01-08T06:43:51.748Z,4.75
2023-01-08T06:46:18.350Z,4.72
2023-01-08T06:48:45.209Z,4.79
2023-01-08T06:51:11.805Z,4.80
2023-01-08T06:53:38.424Z,5.06
2023-01-08T06:56:07.554Z,5.32
2023-01-08T06:58:43.715Z,5.10
2023-01-08T07:01:27.715Z,4.80
2023-01-08T07:04:02.297Z,5.08
2023-01-08T07:06:31.877Z,5.16
2023-01-08T07:09:03.521Z,5.03
2023-01-08T07:11:30.085Z,5.28
2023-01-08T07:13:56.814Z,5.36
2023-01-08T07:16:23.440Z,5.62
2023-01-08T07:18:50.028Z,5.66
2023-01-08T07:21:16.915Z,5.48
2023-01-08T07:23:43.704Z,5.23
2023-01-08T07:26:10.400Z,5.12
2023-01-08T07:28:37.009Z,5.10
2023-01-08T07:31:05.803Z,5.37
2023-01-08T07:33:32.614Z,5.53
2023-01-08T07:35:59.464Z,5.53
2023-01-08T07:38:26.167Z,5.79
2023-01-08T07:40:52.766Z,5.85
2023-01-08T07:43:19.833Z,5.95
2023-01-08T07:45:46.556Z,5.96
2023-01-08T07:48:16.565Z,5.88
2023-01-08T07:50:44.345Z,6.09
2023-01-08T07:53:13.802Z,6.14
2023-01-08T07:55:40.584Z,6.23
2023-01-08T07:58:13.775Z,6.17
2023-01-08T08:00:41.013Z,5.92
2023-01-08T08:03:11.693Z,6.03
2023-01-08T08:05:38.891Z,6.30
2023-01-08T08:08:10.600Z,5.78
2023-01-08T08:10:38.914Z,5.90
2023-01-08T08:13:05.868Z,5.21
2023-01-08T08:15:33.666Z,5.37
2023-01-08T08:18:00.396Z,5.62
2023-01-08T08:20:27.668Z,6.24
2023-01-08T08:23:07.068Z,5.98
2023-01-08T08:25:33.716Z,6.33
2023-01-08T08:28:02.201Z,6.59
2023-01-08T08:30:30.118Z,6.57
2023-01-08T08:32:59.719Z,6.46
2023-01-08T08:35:26.800Z,6.58
2023-01-08T08:37:54.212Z,6.39
2023-01-08T08:40:22.365Z,5.51
2023-01-08T08:42:49.067Z,6.35
2023-01-08T08:45:15.667Z,6.49
2023-01-08T08:47:45.083Z,6.65
2023-01-08T08:50:12.308Z,6.39
2023-01-08T08:52:38.939Z,6.53
2023-01-08T08:55:06.976Z,6.73
2023-01-08T08:57:33.547Z,6.94
2023-01-08T09:00:01.264Z,6.51
2023-01-08T09:02:33.364Z,7.06
2023-01-08T09:05:00.711Z,7.12
2023-01-08T09:07:27.328Z,7.26
2023-01-08T09:09:53.910Z,7.32
2023-01-08T09:12:20.614Z,6.98
2023-01-08T09:14:47.265Z,7.24
2023-01-08T09:17:13.863Z,7.01
2023-01-08T09:19:40.471Z,7.33
2023-01-08T09:22:07.092Z,7.39
2023-01-08T09:24:34.739Z,7.60
2023-01-08T09:27:01.335Z,7.60
2023-01-08T09:29:29.089Z,7.64
2023-01-08T09:31:57.604Z,7.76
2023-01-08T09:34:24.335Z,7.76
2023-01-08T09:36:50.961Z,7.72
2023-01-08T09:39:17.638Z,7.67
2023-01-08T09:41:47.643Z,7.83
2023-01-08T09:44:22.720Z,7.83
2023-01-08T09:46:50.023Z,7.88
2023-01-08T09:49:29.418Z,7.74
2023-01-08T09:51:56.151Z,7.72
2023-01-08T09:54:26.391Z,7.95
2023-01-08T09:56:53.970Z,7.95
2023-01-08T09:59:21.296Z,7.93
2023-01-08T10:01:53.501Z,8.05
2023-01-08T10:04:23.313Z,7.95
2023-01-08T10:06:57.184Z,8.20
2023-01-08T10:09:29.811Z,8.16
2023-01-08T10:12:02.074Z,8.50
2023-01-08T10:14:35.258Z,8.42
2023-01-08T10:17:11.548Z,8.50
2023-01-08T10:19:38.729Z,8.37
2023-01-08T10:22:14.067Z,8.43
2023-01-08T10:24:41.039Z,8.43
2023-01-08T10:27:10.241Z,8.22
2023-01-08T10:29:37.135Z,8.47
2023-01-08T10:32:11.236Z,8.35
2023-01-08T10:34:50.933Z,8.31
2023-01-08T10:37:37.080Z,8.69
2023-01-08T10:40:20.379Z,8.34
2023-01-08T10:42:47.177Z,8.70
2023-01-08T10:45:21.607Z,8.88
2023-01-08T10:47:56.607Z,8.87
2023-01-08T10:50:26.973Z,8.77
2023-01-08T10:52:59.720Z,9.02
2023-01-08T10:55:39.063Z,8.94
2023-01-08T10:58:15.319Z,9.13
2023-01-08T11:00:42.007Z,9.33
2023-01-08T11:03:28.723Z,9.32
2023-01-08T11:05:55.664Z,9.00
2023-01-08T11:08:23.424Z,9.33
2023-01-08T11:11:04.297Z,9.39
2023-01-08T11:13:30.899Z,9.54
2023-01-08T11:16:07.021Z,9.53
2023-01-08T11:18:45.413Z,9.55
2023-01-08T11:21:21.243Z,9.29
2023-01-08T11:24:00.349Z,9.67
2023-01-08T11:26:27.803Z,9.57
2023-01-08T11:29:12.566Z,9.10
2023-01-08T11:31:48.090Z,9.58
2023-01-08T11:34:39.497Z,9.53
2023-01-08T11:37:28.288Z,9.40
2023-01-08T11:39:56.789Z,9.80
2023-01-08T11:42:38.589Z,9.84
2023-01-08T11:45:15.203Z,9.63
2023-01-08T11:48:02.371Z,9.78
2023-01-08T11:50:35.557Z,9.85
2023-01-08T11:53:11.312Z,9.84
2023-01-08T11:56:00.670Z,9.84
2023-01-08T11:58:43.288Z,9.95
2023-01-08T12:01:24.329Z,9.97
2023-01-08T12:04:18.963Z,9.97
2023-01-08T12:07:06.211Z,10.12
2023-01-08T12:09:46.837Z,10.14
2023-01-08T12:12:37.291Z,9.99
2023-01-08T12:15:18.986Z,9.89
2023-01-08T12:17:54.451Z,10.30
2023-01-08T12:20:45.179Z,10.23
2023-01-08T12:23:21.593Z,10.32
2023-01-08T12:26:22.082Z,9.94
2023-01-08T12:29:11.793Z,10.18
2023-01-08T12:31:38.411Z,10.38
2023-01-08T12:34:17.103Z,9.69
2023-01-08T12:36:52.719Z,10.18
2023-01-08T12:39:30.187Z,10.25
2023-01-08T12:42:18.063Z,10.35
2023-01-08T12:44:46.834Z,10.34
2023-01-08T12:47:22.343Z,10.45
2023-01-08T12:50:10.749Z,10.41
2023-01-08T12:53:11.318Z,10.34
2023-01-08T12:55:46.501Z,10.47
2023-01-08T12:58:32.960Z,10.63
2023-01-08T13:01:16.435Z,10.63
2023-01-08T13:03:43.963Z,10.63
2023-01-08T13:06:33.141Z,10.56
2023-01-08T13:09:01.720Z,10.58
2023-01-08T13:11:34.485Z,10.59
2023-01-08T13:14:10.408Z,10.68
2023-01-08T13:16:42.368Z,10.70
2023-01-08T13:19:26.133Z,10.51
2023-01-08T13:22:00.624Z,10.73
2023-01-08T13:24:41.114Z,10.73
2023-01-08T13:27:12.134Z,10.76
2023-01-08T13:29:44.635Z,10.81
2023-01-08T13:32:36.156Z,10.64
2023-01-08T13:35:17.030Z,10.66
2023-01-08T13:37:50.907Z,10.74
2023-01-08T13:40:39.524Z,10.56
2023-01-08T13:43:32.144Z,10.56
2023-01-08T13:46:01.200Z,10.61
2023-01-08T13:48:31.023Z,10.54
2023-01-08T13:50:58.107Z,10.53
2023-01-08T13:53:27.047Z,10.53
2023-01-08T13:56:00.128Z,10.40
2023-01-08T13:58:33.546Z,10.43
2023-01-08T14:01:03.184Z,10.42
2023-01-08T14:03:35.262Z,10.22
2023-01-08T14:06:07.174Z,10.22
2023-01-08T14:08:34.305Z,10.19
2023-01-08T14:11:03.066Z,10.14
2023-01-08T14:13:32.164Z,10.11
2023-01-08T14:16:03.310Z,10.00
2023-01-08T14:18:30.057Z,9.89
2023-01-08T14:20:57.607Z,9.81
2023-01-08T14:23:32.352Z,9.75
2023-01-08T14:26:06.495Z,9.65
2023-01-08T14:28:33.152Z,9.66
2023-01-08T14:30:59.811Z,9.73
2023-01-08T14:33:35.528Z,9.58
2023-01-08T14:36:04.032Z,9.56
2023-01-08T14:38:30.747Z,9.60
2023-01-08T14:41:02.818Z,9.50
2023-01-08T14:43:38.668Z,9.27
2023-01-08T14:46:18.249Z,9.29
2023-01-08T14:48:46.071Z,9.34
2023-01-08T14:51:22.492Z,9.25
2023-01-08T14:53:52.922Z,9.29
2023-01-08T14:56:24.325Z,9.30
2023-01-08T14:58:51.346Z,9.13
2023-01-08T15:01:27.865Z,9.07
2023-01-08T15:04:19.467Z,8.96
2023-01-08T15:06:46.699Z,9.03
2023-01-08T15:09:21.199Z,8.89
2023-01-08T15:11:56.181Z,8.94
2023-01-08T15:14:24.831Z,8.89
2023-01-08T15:16:55.317Z,8.74
2023-01-08T15:19:27.409Z,8.75
2023-01-08T15:21:57.759Z,8.71
2023-01-08T15:24:34.427Z,8.53
2023-01-08T15:27:11.873Z,8.62
2023-01-08T15:29:49.497Z,8.69
2023-01-08T15:32:16.651Z,8.63
2023-01-08T15:34:46.137Z,8.70
2023-01-08T15:37:15.146Z,8.60
2023-01-08T15:39:42.458Z,8.62
2023-01-08T15:42:42.719Z,8.45
2023-01-08T15:45:18.483Z,8.51
2023-01-08T15:47:45.104Z,8.53
2023-01-08T15:50:12.478Z,8.59
2023-01-08T15:52:41.709Z,8.60
2023-01-08T15:55:16.435Z,8.56
2023-01-08T15:57:43.174Z,8.57
2023-01-08T16:00:12.561Z,8.62
2023-01-08T16:02:46.276Z,8.56
2023-01-08T16:05:13.440Z,8.59
2023-01-08T16:07:40.073Z,8.57
2023-01-08T16:10:07.713Z,8.52
2023-01-08T16:12:34.398Z,8.54
2023-01-08T16:15:00.992Z,8.56
2023-01-08T16:17:31.681Z,8.27
2023-01-08T16:19:58.339Z,8.41
2023-01-08T16:22:25.011Z,8.42
2023-01-08T16:24:51.664Z,8.38
2023-01-08T16:27:18.336Z,8.34
2023-01-08T16:29:45.049Z,8.38
2023-01-08T16:32:11.839Z,8.38
2023-01-08T16:34:38.767Z,8.34
2023-01-08T16:37:05.628Z,8.20
2023-01-08T16:39:32.921Z,8.22
2023-01-08T16:41:59.648Z,8.47
2023-01-08T16:44:31.201Z,8.45
2023-01-08T16:46:58.774Z,8.39
2023-01-08T16:49:25.398Z,8.33
2023-01-08T16:51:52.005Z,8.30
2023-01-08T16:54:18.848Z,8.20
2023-01-08T16:56:45.838Z,8.18
2023-01-08T16:59:22.799Z,8.18
2023-01-08T17:01:50.412Z,8.15
2023-01-08T17:04:17.227Z,8.12
2023-01-08T17:06:43.867Z,8.11
2023-01-08T17:09:11.792Z,8.10
2023-01-08T17:11:38.928Z,8.10
2023-01-08T17:14:05.648Z,8.07
2023-01-08T17:16:32.268Z,8.07
2023-01-08T17:18:58.917Z,7.99
2023-01-08T17:21:28.071Z,8.06
2023-01-08T17:23:54.697Z,8.07
2023-01-08T17:26:21.482Z,8.02
2023-01-08T17:28:48.116Z,8.04
2023-01-08T17:31:20.358Z,8.04
2023-01-08T17:33:51.383Z,7.91
2023-01-08T17:36:23.762Z,8.01
2023-01-08T17:38:51.235Z,7.99
2023-01-08T17:41:36.708Z,8.04
2023-01-08T17:44:06.919Z,8.08
2023-01-08T17:46:42.140Z,8.09
2023-01-08T17:49:11.230Z,8.13
2023-01-08T17:51:40.745Z,7.99
2023-01-08T17:54:10.965Z,7.98
2023-01-08T17:56:37.817Z,8.01
2023-01-08T17:59:04.841Z,7.93
2023-01-08T18:01:32.199Z,7.88
2023-01-08T18:03:58.958Z,7.92
2023-01-08T18:06:25.683Z,7.90
2023-01-08T18:08:52.390Z,7.84
2023-01-08T18:11:19.088Z,7.83
2023-01-08T18:13:45.807Z,7.74
2023-01-08T18:16:14.120Z,7.70
2023-01-08T18:18:40.973Z,7.73
2023-01-08T18:21:07.662Z,7.72
2023-01-08T18:23:34.308Z,7.75
2023-01-08T18:26:06.660Z,7.52
2023-01-08T18:28:33.933Z,7.62
2023-01-08T18:31:01.947Z,7.66
2023-01-08T18:33:28.557Z,7.64
2023-01-08T18:36:04.437Z,7.58
2023-01-08T18:38:31.031Z,7.60
2023-01-08T18:40:58.663Z,7.58
2023-01-08T18:43:26.878Z,7.62
2023-01-08T18:46:02.406Z,7.43
2023-01-08T18:48:29.491Z,7.46
2023-01-08T18:50:56.761Z,7.43
2023-01-08T18:53:24.014Z,7.44
2023-01-08T18:55:58.328Z,7.41
2023-01-08T18:58:25.062Z,7.41
2023-01-08T19:00:51.848Z,7.51
2023-01-08T19:03:18.734Z,7.32
2023-01-08T19:05:45.363Z,7.25
2023-01-08T19:08:12.063Z,7.25
2023-01-08T19:10:39.988Z,7.31
2023-01-08T19:13:07.017Z,7.29
2023-01-08T19:15:37.538Z,7.34
2023-01-08T19:18:06.340Z,7.35
2023-01-08T19:20:33.136Z,7.29
2023-01-08T19:23:02.539Z,7.32
2023-01-08T19:25:29.274Z,7.32
2023-01-08T19:27:58.984Z,7.11
2023-01-08T19:30:30.693Z,7.03
2023-01-08T19:32:57.604Z,7.07
2023-01-08T19:35:24.458Z,7.07
2023-01-08T19:37:51.039Z,7.14
2023-01-08T19:40:18.236Z,7.17
2023-01-08T19:43:08.512Z,7.06
2023-01-08T19:45:37.956Z,6.97
2023-01-08T19:48:05.548Z,7.07
2023-01-08T19:50:34.120Z,6.94
2023-01-08T19:53:00.793Z,6.90
2023-01-08T19:55:28.085Z,6.98
2023-01-08T19:57:55.055Z,6.63
2023-01-08T20:00:24.796Z,6.83
2023-01-08T20:02:51.709Z,6.89
2023-01-08T20:05:18.702Z,6.82
2023-01-08T20:07:45.542Z,6.90
2023-01-08T20:10:13.472Z,6.80
2023-01-08T20:12:40.414Z,6.86
2023-01-08T20:15:08.977Z,6.81
2023-01-08T20:17:35.850Z,6.93
2023-01-08T20:20:03.085Z,6.87
2023-01-08T20:22:31.176Z,6.78
2023-01-08T20:24:58.659Z,6.83
2023-01-08T20:27:25.958Z,6.95
2023-01-08T20:29:52.569Z,6.79
2023-01-08T20:32:21.534Z,6.85
2023-01-08T20:34:49.428Z,6.85
2023-01-08T20:37:16.035Z,6.84
2023-01-08T20:39:42.723Z,6.82
2023-01-08T20:42:10.103Z,6.76
2023-01-08T20:44:36.810Z,6.68
2023-01-08T20:47:03.485Z,6.54
2023-01-08T20:49:30.226Z,6.41
2023-01-08T20:51:59.522Z,6.44
2023-01-08T20:54:27.442Z,6.31
2023-01-08T20:56:56.241Z,6.51
2023-01-08T20:59:24.210Z,6.62
2023-01-08T21:02:00.983Z,6.60
2023-01-08T21:04:27.769Z,6.55
2023-01-08T21:06:59.762Z,6.58
2023-01-08T21:09:31.538Z,6.33
2023-01-08T21:11:58.275Z,6.45
2023-01-08T21:14:25.009Z,6.41
2023-01-08T21:16:51.625Z,6.52
2023-01-08T21:19:26.268Z,6.50
2023-01-08T21:21:57.910Z,6.51
2023-01-08T21:24:24.504Z,6.45
2023-01-08T21:26:51.117Z,6.45
2023-01-08T21:29:19.872Z,5.33
2023-01-08T21:31:46.702Z,5.19
2023-01-08T21:34:13.944Z,5.79
2023-01-08T21:36:46.246Z,6.05
2023-01-08T21:39:16.714Z,6.30
2023-01-08T21:42:11.119Z,6.44
2023-01-08T21:44:56.176Z,6.44
2023-01-08T21:47:22.874Z,5.78
2023-01-08T21:49:50.071Z,5.81
2023-01-08T21:52:35.367Z,5.94
2023-01-08T21:55:02.540Z,5.63
2023-01-08T21:57:29.299Z,5.53
2023-01-08T21:59:56.545Z,5.95
2023-01-08T22:02:24.863Z,6.12
2023-01-08T22:04:55.318Z,6.17
2023-01-08T22:07:22.206Z,5.74
2023-01-08T22:09:53.917Z,6.00
2023-01-08T22:12:22.749Z,6.16
2023-01-08T22:14:49.680Z,6.30
2023-01-08T22:17:16.300Z,6.17
2023-01-08T22:19:42.914Z,6.04
2023-01-08T22:22:11.069Z,6.10
2023-01-08T22:24:39.283Z,6.19
2023-01-08T22:27:06.236Z,5.95
2023-01-08T22:29:32.927Z,6.15
2023-01-08T22:31:59.702Z,6.09
2023-01-08T22:34:26.476Z,6.12
2023-01-08T22:36:53.098Z,6.20
2023-01-08T22:39:19.820Z,6.34
2023-01-08T22:41:46.740Z,6.32
2023-01-08T22:44:14.104Z,6.33
2023-01-08T22:46:41.263Z,6.41
2023-01-08T22:49:11.260Z,6.24
2023-01-08T22:51:38.002Z,6.05
2023-01-08T22:54:04.677Z,6.13
2023-01-08T22:56:31.295Z,6.09
2023-01-08T22:58:58.299Z,6.17
2023-01-08T23:01:27.360Z,5.89
2023-01-08T23:03:58.972Z,5.97
2023-01-08T23:06:27.833Z,6.06
2023-01-08T23:08:55.966Z,5.96
2023-01-08T23:11:23.779Z,6.00
2023-01-08T23:13:51.310Z,6.03
2023-01-08T23:16:19.347Z,5.69
2023-01-08T23:18:46.285Z,5.75
2023-01-08T23:21:15.980Z,5.95
2023-01-08T23:23:43.771Z,5.50
2023-01-08T23:26:19.618Z,5.33
2023-01-08T23:28:47.859Z,5.62
2023-01-08T23:31:17.713Z,5.65
2023-01-08T23:33:44.367Z,5.75
2023-01-08T23:36:17.471Z,5.97
2023-01-08T23:38:49.044Z,5.89
2023-01-08T23:41:16.184Z,5.94
2023-01-08T23:43:43.504Z,5.73
2023-01-08T23:46:10.605Z,5.55
2023-01-08T23:48:37.340Z,5.68
2023-01-08T23:51:04.084Z,5.48
2023-01-08T23:53:30.875Z,5.42
2023-01-08T23:55:57.557Z,5.50
2023-01-08T23:58:24.488Z,5.53
